Terminal Aerodrome Forecast
Issued by NWS Albany, NY

Home | Current Version | Previous Version | Text Only | Print | Product List | Glossary On
Versions: 1 2 3 4 5 6 7 8 9 10 11 12 13 14 15 16 17 18 19
693
FTUS41 KALY 260703 AAA
TAFPOU
TAF AMD
KPOU 260703Z 2607/2706 VRB03KT 2SM BR VCSH OVC008
      TEMPO 2607/2610 1/2SM FG VV003
     FM261000 26005KT 6SM BR BKN015
     FM261200 25008KT P6SM SCT015 OVC035
     FM261500 27010G18KT P6SM SCT025 BKN050
     FM270100 29005KT P6SM SCT100=

USA.gov is the U.S. government's official web portal to all federal, state and local government web resources and services.